Huvudsida
METAR-TAF:

METAR-TAF

Flygplatser :

Belize International Airport

Belize City, Belize

latitud: 17-32N, longitud: 088-18W, höjd: 5 m

Aktuellt väderrapport

Denna rapport gjordes för 27 minuter sedan, klockan 14:00 UTC
Vind 10 kt från nord/nordväst
Temperatur 20°C
Fuktighet 88%
Tryck 1024 hPa
Sikt 10 km eller mer
Brutna moln på en höjd av 4800 ft

METAR: MZBZ 281400Z 33010KT 9999 BKN048 20/18 A3024 Q1024 NOSIG

Tid: 08:27 (14:27 UTC)

Väderprognos

Denna rapport gjordes för 3 timmar och 27 minuter sedan, klockan 11:00 UTC
Prognos gäller från 28 kl. 12 UTC till 29 kl. 12 UTC
Vind 7 kt från nord/nordväst
Sikt 10 km eller mer
Spridda moln på en höjd av 2000 ft
Brutna moln på en höjd av 4000 ft

TAF: MZBZ 281100Z 2812/2912 34007KT 9999 SCT020 BKN040

Aktuella väderrapporter och prognoser från 4000 flygplatser (METAR- och TAF-rapporter).

De tillgängliga stationerna syns som gula och röda prickar på kartan.

För musen över prickarna för att se namnen på stationerna.

Klicka sedan för att få väderrapporter och prognoser.

För att ändra kartan: Klicka på de gröna knapparna med ett svart kors på för att zooma in; den gröna knappen med ett streck på för att zooma ut; eller på de gröna pilarna för angränsande kartor.


METAR-TAF: